createdAt,value
2022-10-07T00:00:00.094Z,1012.71
2022-10-07T00:05:00.102Z,1012.77
2022-10-07T00:10:00.094Z,1012.63
2022-10-07T00:15:00.101Z,1012.74
2022-10-07T00:20:00.116Z,1012.66
2022-10-07T00:25:00.189Z,1012.52
2022-10-07T00:30:00.116Z,1012.56
2022-10-07T00:35:00.096Z,1012.51
2022-10-07T00:40:00.097Z,1012.42
2022-10-07T00:45:00.125Z,1012.36
2022-10-07T00:50:00.161Z,1012.3
2022-10-07T00:55:00.108Z,1012.32
2022-10-07T01:00:00.202Z,1012.15
2022-10-07T01:05:00.436Z,1012.21
2022-10-07T01:10:00.096Z,1012.14
2022-10-07T01:15:00.114Z,1012.08
2022-10-07T01:20:00.112Z,1012.04
2022-10-07T01:25:00.140Z,1012.04
2022-10-07T01:30:00.074Z,1012
2022-10-07T01:35:00.076Z,1011.95
2022-10-07T01:40:00.100Z,1011.88
2022-10-07T01:45:00.111Z,1011.88
2022-10-07T01:50:00.138Z,1011.8
2022-10-07T01:55:00.126Z,1011.74
2022-10-07T02:00:00.143Z,1011.6
2022-10-07T02:05:00.106Z,1011.62
2022-10-07T02:10:00.084Z,1011.53
2022-10-07T02:15:00.084Z,1011.56
2022-10-07T02:20:00.093Z,1011.43
2022-10-07T02:25:00.098Z,1011.33
2022-10-07T02:30:00.092Z,1011.26
2022-10-07T02:35:00.084Z,1011.32
2022-10-07T02:40:00.086Z,1011.2
2022-10-07T02:45:00.104Z,1011.22
2022-10-07T02:50:00.086Z,1011.18
2022-10-07T02:55:00.084Z,1011.19
2022-10-07T03:00:00.081Z,1011.02
2022-10-07T03:05:00.147Z,1010.93
2022-10-07T03:10:00.074Z,1010.93
2022-10-07T03:15:00.090Z,1010.86
2022-10-07T03:20:00.093Z,1010.89
2022-10-07T03:25:00.144Z,1010.46
2022-10-07T03:30:00.099Z,1010.32
2022-10-07T03:35:00.098Z,1010.25
2022-10-07T03:40:00.096Z,1010.26
2022-10-07T03:45:00.123Z,1010.26
2022-10-07T03:50:00.109Z,1010.17
2022-10-07T03:55:00.089Z,1010.15
2022-10-07T04:00:00.135Z,1010.13
2022-10-07T04:05:00.117Z,1010.03
2022-10-07T04:10:00.079Z,1009.98
2022-10-07T04:15:00.087Z,1009.9
2022-10-07T04:20:00.114Z,1009.92
2022-10-07T04:25:00.110Z,1009.85
2022-10-07T04:30:00.092Z,1009.86
2022-10-07T04:35:00.118Z,1009.87
2022-10-07T04:40:01.197Z,1009.87
2022-10-07T04:45:00.168Z,1009.83
2022-10-07T04:50:00.090Z,1009.79
2022-10-07T04:55:00.114Z,1009.77
2022-10-07T05:00:00.129Z,1009.73
2022-10-07T05:05:00.148Z,1009.69
2022-10-07T05:10:00.076Z,1009.57
2022-10-07T05:15:00.098Z,1009.53
2022-10-07T05:20:00.094Z,1009.55
2022-10-07T05:25:00.108Z,1009.57
2022-10-07T05:30:00.096Z,1009.44
2022-10-07T05:35:00.116Z,1009.43
2022-10-07T05:40:00.096Z,1009.35
2022-10-07T05:45:00.122Z,1009.36
2022-10-07T05:50:00.100Z,1009.3
2022-10-07T05:55:00.088Z,1009.28
2022-10-07T06:00:00.092Z,1009.32
2022-10-07T06:05:00.127Z,1009.29
2022-10-07T06:10:00.105Z,1009.36
2022-10-07T06:15:00.073Z,1009.3
2022-10-07T06:20:00.098Z,1009.23
2022-10-07T06:25:00.117Z,1009.24
2022-10-07T06:30:00.109Z,1009.15
2022-10-07T06:35:00.096Z,1009.16
2022-10-07T06:40:00.097Z,1009.17
2022-10-07T06:45:00.094Z,1009.12
2022-10-07T06:50:00.102Z,1009.1
2022-10-07T06:55:00.097Z,1009.18
2022-10-07T07:00:00.088Z,1009.11
2022-10-07T07:05:00.111Z,1009.15
2022-10-07T07:10:00.111Z,1009.09
2022-10-07T07:15:00.077Z,1009.1
2022-10-07T07:20:00.104Z,1009.01
2022-10-07T07:25:00.102Z,1009.03
2022-10-07T07:30:00.091Z,1008.93
2022-10-07T07:35:00.158Z,1009.06
2022-10-07T07:40:00.086Z,1009.01
2022-10-07T07:45:00.092Z,1009
2022-10-07T07:50:00.102Z,1008.98
2022-10-07T07:55:00.076Z,1009.04
2022-10-07T08:00:00.138Z,1008.97
2022-10-07T08:05:00.160Z,1008.95
2022-10-07T08:10:00.145Z,1008.92
2022-10-07T08:15:00.103Z,1008.89
2022-10-07T08:20:00.117Z,1008.81
2022-10-07T08:25:00.127Z,1008.75
2022-10-07T08:30:00.111Z,1008.78
2022-10-07T08:35:00.114Z,1008.68
2022-10-07T08:40:00.088Z,1008.71
2022-10-07T08:45:00.102Z,1008.67
2022-10-07T08:50:00.099Z,1008.57
2022-10-07T08:55:00.150Z,1008.61
2022-10-07T09:00:00.152Z,1008.57
2022-10-07T09:05:00.177Z,1008.5
2022-10-07T09:10:00.097Z,1008.44
2022-10-07T09:15:00.090Z,1008.44
2022-10-07T09:20:00.094Z,1008.35
2022-10-07T09:25:00.114Z,1008.29
2022-10-07T09:30:00.071Z,1008.25
2022-10-07T09:35:00.087Z,1008.21
2022-10-07T09:40:00.115Z,1008.22
2022-10-07T09:45:00.196Z,1008.18
2022-10-07T09:50:00.093Z,1008.17
2022-10-07T09:55:00.100Z,1008.07
2022-10-07T10:00:00.131Z,1008.06
2022-10-07T10:05:00.121Z,1008.03
2022-10-07T10:10:00.110Z,1007.97
2022-10-07T10:15:00.090Z,1007.89
2022-10-07T10:20:00.082Z,1007.74
2022-10-07T10:25:00.116Z,1007.66
2022-10-07T10:30:00.094Z,1007.57
2022-10-07T10:35:00.093Z,1007.48
2022-10-07T10:40:00.107Z,1007.42
2022-10-07T10:45:00.128Z,1007.44
2022-10-07T10:50:00.078Z,1007.21
2022-10-07T10:55:00.115Z,1007.2
2022-10-07T11:00:00.125Z,1007.08
2022-10-07T11:05:00.140Z,1007
2022-10-07T11:10:00.120Z,1006.93
2022-10-07T11:15:00.090Z,1006.79
2022-10-07T11:20:00.394Z,1006.76
2022-10-07T11:25:00.260Z,1006.68
2022-10-07T11:30:00.105Z,1006.6
2022-10-07T11:35:00.090Z,1006.55
2022-10-07T11:40:00.079Z,1006.36
2022-10-07T11:45:00.124Z,1006.29
2022-10-07T11:50:00.109Z,1006.2
2022-10-07T11:55:00.129Z,1006.13
2022-10-07T12:00:00.123Z,1006.04
2022-10-07T12:05:00.121Z,1005.83
2022-10-07T12:10:00.098Z,1005.82
2022-10-07T12:15:00.083Z,1005.74
2022-10-07T12:20:00.094Z,1005.7
2022-10-07T12:25:00.100Z,1005.67
2022-10-07T12:30:00.099Z,1005.47
2022-10-07T12:35:00.098Z,1005.3
2022-10-07T12:40:00.093Z,1005.34
2022-10-07T12:45:00.120Z,1005.18
2022-10-07T12:50:00.095Z,1005.11
2022-10-07T12:55:00.100Z,1005.04
2022-10-07T13:00:00.090Z,1005.14
2022-10-07T13:05:00.142Z,1004.98
2022-10-07T13:10:00.082Z,1004.9
2022-10-07T13:15:00.072Z,1004.87
2022-10-07T13:20:00.098Z,1004.69
2022-10-07T13:25:00.101Z,1004.69
2022-10-07T13:30:00.273Z,1004.74
2022-10-07T13:35:00.114Z,1004.64
2022-10-07T13:40:00.189Z,1004.57
2022-10-07T13:45:00.134Z,1004.48
2022-10-07T13:50:00.177Z,1004.37
2022-10-07T13:55:00.085Z,1004.36
2022-10-07T14:00:00.226Z,1004.28
2022-10-07T14:05:00.098Z,1004.14
2022-10-07T14:10:00.187Z,1004.08
2022-10-07T14:15:00.083Z,1004.02
2022-10-07T14:20:00.092Z,1004.08
2022-10-07T14:25:00.109Z,1003.95
2022-10-07T14:30:00.095Z,1003.88
2022-10-07T14:35:00.083Z,1003.88
2022-10-07T14:40:00.102Z,1003.82
2022-10-07T14:45:00.120Z,1003.69
2022-10-07T14:50:00.092Z,1003.69
2022-10-07T14:55:00.114Z,1003.48
2022-10-07T15:00:00.137Z,1003.38
2022-10-07T15:05:00.181Z,1003.31
2022-10-07T15:10:00.101Z,1003.3
2022-10-07T15:15:00.088Z,1003.14
2022-10-07T15:20:00.093Z,1003.06
2022-10-07T15:25:00.103Z,1003.16
2022-10-07T15:30:00.084Z,1003.09
2022-10-07T15:35:00.093Z,1002.97
2022-10-07T15:40:00.095Z,1002.97
2022-10-07T15:45:00.116Z,1002.98
2022-10-07T15:50:00.080Z,1002.93
2022-10-07T15:55:03.823Z,1002.82
2022-10-07T16:00:00.095Z,1002.86
2022-10-07T16:05:00.139Z,1002.88
2022-10-07T16:10:00.093Z,1002.88
2022-10-07T16:15:00.074Z,1002.88
2022-10-07T16:20:00.161Z,1002.8
2022-10-07T16:25:00.097Z,1002.82
2022-10-07T16:30:00.080Z,1002.72
2022-10-07T16:35:00.092Z,1002.75
2022-10-07T16:40:00.082Z,1002.66
2022-10-07T16:45:00.102Z,1002.61
2022-10-07T16:50:00.082Z,1002.61
2022-10-07T16:55:00.074Z,1002.53
2022-10-07T17:00:00.193Z,1002.58
2022-10-07T17:05:00.109Z,1002.58
2022-10-07T17:10:00.081Z,1002.52
2022-10-07T17:15:00.102Z,1002.44
2022-10-07T17:20:00.078Z,1002.43
2022-10-07T17:25:00.187Z,1002.49
2022-10-07T17:30:00.089Z,1002.37
2022-10-07T17:35:00.080Z,1002.44
2022-10-07T17:40:00.121Z,1002.42
2022-10-07T17:45:00.109Z,1002.29
2022-10-07T17:50:00.130Z,1002.31
2022-10-07T17:55:00.091Z,1002.35
2022-10-07T18:00:00.132Z,1002.35
2022-10-07T18:05:00.182Z,1002.35
2022-10-07T18:10:00.170Z,1002.27
2022-10-07T18:15:00.097Z,1002.28
2022-10-07T18:20:00.104Z,1002.23
2022-10-07T18:25:00.107Z,1002.25
2022-10-07T18:30:00.093Z,1002.14
2022-10-07T18:35:00.090Z,1002.17
2022-10-07T18:40:00.096Z,1002.1
2022-10-07T18:45:00.104Z,1002.08
2022-10-07T18:50:00.074Z,1002.03
2022-10-07T18:55:00.091Z,1001.98
2022-10-07T19:00:00.103Z,1002
2022-10-07T19:05:00.115Z,1002
2022-10-07T19:10:00.102Z,1001.96
2022-10-07T19:15:00.090Z,1001.86
2022-10-07T19:20:00.091Z,1001.88
2022-10-07T19:25:00.140Z,1001.93
2022-10-07T19:30:00.170Z,1001.86
2022-10-07T19:35:00.103Z,1001.86
2022-10-07T19:40:00.098Z,1001.94
2022-10-07T19:45:00.121Z,1001.87
2022-10-07T19:50:00.119Z,1001.81
2022-10-07T19:55:00.092Z,1001.77
2022-10-07T20:00:00.138Z,1001.69
2022-10-07T20:05:00.127Z,1001.65
2022-10-07T20:10:00.113Z,1001.6
2022-10-07T20:15:00.090Z,1001.64
2022-10-07T20:20:00.089Z,1001.52
2022-10-07T20:25:00.183Z,1001.98
2022-10-07T20:30:00.137Z,1002.04
2022-10-07T20:35:00.102Z,1002.04
2022-10-07T20:40:00.152Z,1001.92
2022-10-07T20:45:00.159Z,1001.81
2022-10-07T20:50:00.180Z,1001.77
2022-10-07T20:55:00.100Z,1001.79
2022-10-07T21:00:00.101Z,1001.77
2022-10-07T21:05:00.125Z,1001.79
2022-10-07T21:10:00.108Z,1001.72
2022-10-07T21:15:00.107Z,1001.67
2022-10-07T21:20:00.111Z,1001.6
2022-10-07T21:25:00.094Z,1001.59
2022-10-07T21:30:00.106Z,1001.6
2022-10-07T21:35:00.104Z,1001.54
2022-10-07T21:40:00.086Z,1001.51
2022-10-07T21:45:00.194Z,1001.47
2022-10-07T21:50:00.096Z,1001.54
2022-10-07T21:55:00.111Z,1001.35
2022-10-07T22:00:00.150Z,1001.29
2022-10-07T22:05:00.134Z,1001.27
2022-10-07T22:10:00.127Z,1001.18
2022-10-07T22:15:00.110Z,1001.2
2022-10-07T22:20:00.097Z,1001.09
2022-10-07T22:25:00.105Z,1000.96
2022-10-07T22:30:00.123Z,1001
2022-10-07T22:35:00.091Z,1001
2022-10-07T22:40:00.139Z,1000.9
2022-10-07T22:45:00.132Z,1000.9
2022-10-07T22:50:00.101Z,1000.86
2022-10-07T22:55:00.135Z,1000.79
2022-10-07T23:00:00.101Z,1000.77
2022-10-07T23:05:00.158Z,1000.7
2022-10-07T23:10:00.114Z,1000.75
2022-10-07T23:15:00.110Z,1000.66
2022-10-07T23:20:00.104Z,1000.68
2022-10-07T23:25:00.245Z,1000.59
2022-10-07T23:30:00.164Z,1000.63
2022-10-07T23:35:00.107Z,1000.52
2022-10-07T23:40:00.146Z,1000.51
2022-10-07T23:45:00.119Z,1000.46
2022-10-07T23:50:00.145Z,1000.49
2022-10-07T23:55:00.101Z,1000.32
